Wainwright, AK

16:37 AKST le 27 février 2017 (GMT -0900)
Wiley Post-Will Rogers Memorial | | Change Station

Alt. 43 ft 71.29 °N, 156.77 °W | Updated 7 minutes ago

Brouillard
Brouillard
-12 ° F
Paraît -31 ° F
N
10
Vent Variable Vent de NNO

Aujourd'hui
Haut(e) -- | Bas -- ° F
--% Risque de précip.
Hier
Haut(e) -- | Bas -- ° F
Precip. -- pouce
Pression 30.39 pouce
Visibilité 1.5 Miles terrestres
Nuages Nuages épars 400 ft
Refroidissement éolien -31 ° F
Point de rosée -17 ° F
Humidité 78%
Précipitations 0.00 pouce
Profondeur de la couche neigeuse Non disponible.
9:07 AM 6:13 PM
Lune montante, 3% visible
SPECI PABR 280130Z 33009KT 1 1/2SM BR SCT004 M24/M27 A3039 RMK AO2 T12441272
Pression 30.39 pouce
Visibilité 1.5 Miles terrestres
Nuages Nuages épars 400 ft
Refroidissement éolien -31 ° F
Point de rosée -17 ° F
Humidité 78%
Précipitations 0.00 pouce
Profondeur de la couche neigeuse Non disponible.
9:07 AM 6:13 PM
Lune montante, 3% visible
SPECI PABR 280130Z 33009KT 1 1/2SM BR SCT004 M24/M27 A3039 RMK AO2 T12441272

Get Your Daily Forecast Email!

Thanks for signing up!

Be on the lookout for a verification email in your inbox.

You'll start receiving the daily forecast at 8 AM.

×

10-Day Weather Forecast

Almanac

Astronomie

Feb. 27, 2017 Lever Coucher
Temps réel
Crépuscule civil
Crépuscule nautique
Crépuscule astronomique
Lune
Durée de lumière visible
Longueur du jour
Tomorrow will be .
, % of the Moon is Illuminated

Extrêmes aujourd'hui

State Highs State Lows

Community

WunderPhotos

Upload Photos

1,962,540 Photos téléchargées !

WunderBlog® & News

Nearby

Qualité de l'air

  Qualité de l'air Indice de la qualité de l'air Polluant
Not available.

Épaisseur de neige

Station Depth Altitude

Activité sismique

Ville Distance Mag. Time & Date
Minimum magnitude displayed is 2.5.

Températures des eaux côtières

Lieu Température

Stations

Stations météo à proximité

Emplacement de la station Température Refroidissement éolien Point de rosée Humidité Vent Precip. Alt. Mise à jour Type
                   

Watches & Warnings

There are currently no watches in effect.